Time;durP1;ratioP1;P1;durP2;ratioP2;P2;SDS_P1;SDS_P2;PMS_P1;PMS_P2;Temp;Humidity;BMP_temperature;BMP_pressure;BME280_temperature;BME280_humidity;BME280_pressure;Samples;Min_cycle;Max_cycle;Signal;HPM_P1;HPM_P2
2023/06/18 00:00:05;;;;;;;5.03;4.47;;;20.40;51.60;19.60;96341.00;;;;5050862;28;20197;-79
2023/06/18 00:02:33;;;;;;;4.13;3.83;;;20.40;51.70;19.60;96339.00;;;;5054703;28;20196;-79
2023/06/18 00:05:00;;;;;;;4.33;4.03;;;20.40;51.80;19.50;96344.00;;;;5061692;28;20229;-79
2023/06/18 00:07:28;;;;;;;4.10;3.80;;;20.40;51.90;19.50;96348.00;;;;5052576;28;20231;-79
2023/06/18 00:09:55;;;;;;;4.73;4.33;;;20.30;52.00;19.50;96345.00;;;;5056335;28;20195;-79
2023/06/18 00:12:24;;;;;;;4.33;3.80;;;20.30;52.00;19.40;96350.00;;;;5053401;28;20331;-80
2023/06/18 00:14:51;;;;;;;4.30;4.00;;;20.30;52.30;19.40;96341.00;;;;5052597;28;20223;-80
2023/06/18 00:17:18;;;;;;;3.80;3.50;;;20.20;52.20;19.40;96347.00;;;;5052689;28;20283;-79
2023/06/18 00:19:46;;;;;;;4.10;3.77;;;20.20;52.30;19.40;96345.00;;;;5056269;28;20197;-79
2023/06/18 00:22:14;;;;;;;4.53;4.13;;;20.20;52.40;19.30;96345.00;;;;5057066;28;20206;-80
2023/06/18 00:24:41;;;;;;;4.67;4.27;;;20.10;52.60;19.30;96343.00;;;;5062546;28;20221;-80
2023/06/18 00:27:09;;;;;;;4.13;3.80;;;20.10;52.80;19.30;96349.00;;;;5071013;28;20249;-80
2023/06/18 00:29:40;;;;;;;4.90;4.50;;;20.10;52.80;19.30;96350.00;;;;5051227;28;20254;-79
2023/06/18 00:32:08;;;;;;;4.20;3.90;;;20.10;52.90;19.20;96342.00;;;;5058727;28;20550;-80
2023/06/18 00:34:36;;;;;;;3.97;3.67;;;20.10;52.80;19.20;96341.00;;;;5052279;28;20231;-80
2023/06/18 00:37:09;;;;;;;3.47;3.27;;;20.00;52.80;19.20;96344.00;;;;5049832;28;20616;-80
2023/06/18 00:39:36;;;;;;;4.47;4.17;;;20.00;52.90;19.20;96339.00;;;;5052051;28;20197;-80
2023/06/18 00:42:05;;;;;;;4.23;3.93;;;20.00;53.00;19.10;96331.00;;;;5052650;28;20201;-80
2023/06/18 00:44:33;;;;;;;4.30;3.90;;;20.00;53.30;19.10;96341.00;;;;5055453;28;20312;-80
2023/06/18 00:47:02;;;;;;;4.47;4.07;;;19.90;53.90;19.00;96329.00;;;;5055568;28;20220;-80
2023/06/18 00:49:29;;;;;;;4.50;4.10;;;19.90;53.60;19.00;96330.00;;;;5046789;28;20366;-80
2023/06/18 00:51:58;;;;;;;5.83;4.10;;;19.90;53.50;19.00;96332.00;;;;5051739;28;20282;-80
2023/06/18 00:54:29;;;;;;;5.07;4.17;;;19.80;53.60;19.00;96330.00;;;;5054432;28;20695;-80
2023/06/18 00:56:59;;;;;;;3.90;3.60;;;19.80;53.60;18.90;96328.00;;;;5054043;28;20185;-80
2023/06/18 00:59:27;;;;;;;4.07;3.67;;;19.80;53.60;18.90;96333.00;;;;5037327;28;20204;-80
2023/06/18 01:01:57;;;;;;;4.13;3.83;;;19.80;53.50;18.90;96336.00;;;;5052853;28;20196;-80
2023/06/18 01:04:32;;;;;;;4.30;3.90;;;19.80;53.60;18.90;96328.00;;;;5053871;28;20673;-79
2023/06/18 01:07:02;;;;;;;3.83;3.50;;;19.70;53.70;18.80;96323.00;;;;5053688;28;20249;-80
2023/06/18 01:09:33;;;;;;;4.27;3.87;;;19.70;53.70;18.80;96328.00;;;;5049400;28;20195;-80
2023/06/18 01:12:00;;;;;;;4.17;3.87;;;19.70;53.80;18.80;96325.00;;;;5052745;28;20203;-79
2023/06/18 01:14:30;;;;;;;4.97;4.00;;;19.60;53.80;18.80;96327.00;;;;5054022;28;20256;-80
2023/06/18 01:17:00;;;;;;;4.40;4.00;;;19.60;54.00;18.80;96324.00;;;;5053847;28;20197;-80
2023/06/18 01:19:47;;;;;;;4.57;4.17;;;19.60;54.10;18.70;96329.00;;;;5055253;28;20280;-80
2023/06/18 01:22:27;;;;;;;5.07;4.40;;;19.60;54.40;18.70;96325.00;;;;5051259;28;20194;-80
2023/06/18 01:25:02;;;;;;;4.47;4.17;;;19.60;54.40;18.70;96323.00;;;;5051113;28;20309;-80
2023/06/18 01:27:33;;;;;;;4.93;4.50;;;19.60;54.30;18.70;96325.00;;;;5052989;28;20200;-80
2023/06/18 01:30:03;;;;;;;4.37;3.77;;;19.50;54.20;18.60;96315.00;;;;5055736;28;20223;-80
2023/06/18 01:32:31;;;;;;;4.10;3.80;;;19.50;54.30;18.60;96321.00;;;;5054711;28;20246;-80
2023/06/18 01:35:01;;;;;;;4.27;3.87;;;19.50;54.30;18.60;96322.00;;;;5054997;28;20784;-80
2023/06/18 01:37:59;;;;;;;4.33;3.83;;;19.50;54.40;18.60;96323.00;;;;5054261;28;20587;-80
2023/06/18 01:40:38;;;;;;;4.57;4.17;;;19.50;54.80;18.60;96319.00;;;;5054947;28;20200;-80
2023/06/18 01:43:13;;;;;;;4.67;4.27;;;19.40;54.50;18.50;96323.00;;;;5055268;28;20287;-80
2023/06/18 01:45:49;;;;;;;5.00;4.53;;;19.40;55.00;18.50;96322.00;;;;5054350;28;20216;-80
2023/06/18 01:48:21;;;;;;;5.13;4.23;;;19.40;54.50;18.50;96312.00;;;;5055054;28;20200;-80
2023/06/18 01:50:53;;;;;;;4.40;4.00;;;19.40;54.50;18.50;96313.00;;;;5054929;28;20584;-80
2023/06/18 01:53:22;;;;;;;4.20;3.83;;;19.30;54.70;18.50;96315.00;;;;5054528;28;20291;-80
2023/06/18 01:55:53;;;;;;;4.40;4.00;;;19.30;54.60;18.40;96319.00;;;;5055788;28;20205;-80
2023/06/18 01:58:23;;;;;;;4.67;4.07;;;19.30;54.70;18.40;96317.00;;;;5054472;28;20200;-79
2023/06/18 02:00:52;;;;;;;4.90;4.40;;;19.30;54.80;18.40;96306.00;;;;5054150;28;20196;-79
2023/06/18 02:03:20;;;;;;;4.43;4.03;;;19.30;54.80;18.40;96314.00;;;;5051452;28;20197;-79
2023/06/18 02:05:49;;;;;;;4.63;4.23;;;19.20;54.80;18.40;96316.00;;;;5052138;28;20212;-80
2023/06/18 02:08:16;;;;;;;4.43;4.00;;;19.20;54.90;18.30;96315.00;;;;5053993;28;20197;-80
2023/06/18 02:10:44;;;;;;;4.23;3.83;;;19.20;55.00;18.30;96318.00;;;;5054406;28;20200;-80
2023/06/18 02:13:11;;;;;;;4.50;4.03;;;19.20;55.30;18.30;96321.00;;;;5056005;28;20197;-80
2023/06/18 02:15:39;;;;;;;4.20;3.90;;;19.20;55.20;18.30;96320.00;;;;5054557;28;20196;-79
2023/06/18 02:18:06;;;;;;;5.23;4.20;;;19.20;55.20;18.30;96317.00;;;;5054746;28;20193;-79
2023/06/18 02:20:34;;;;;;;4.27;3.90;;;19.10;55.30;18.30;96327.00;;;;5059507;28;20654;-80
2023/06/18 02:23:03;;;;;;;4.07;3.77;;;19.10;55.40;18.20;96319.00;;;;5054671;28;20702;-80
2023/06/18 02:25:32;;;;;;;4.17;3.77;;;19.10;55.50;18.20;96323.00;;;;5056695;28;20216;-79
2023/06/18 02:28:00;;;;;;;4.23;3.93;;;19.10;55.50;18.20;96322.00;;;;5051425;28;20274;-80
2023/06/18 02:30:29;;;;;;;4.07;3.77;;;19.10;55.60;18.20;96324.00;;;;5055794;28;20280;-80
2023/06/18 02:32:58;;;;;;;4.50;4.10;;;19.10;55.70;18.20;96321.00;;;;5056525;28;20203;-80
2023/06/18 02:35:25;;;;;;;4.57;4.13;;;19.00;55.70;18.20;96319.00;;;;5052976;28;20221;-78
2023/06/18 02:37:53;;;;;;;4.23;3.83;;;19.00;55.80;18.20;96320.00;;;;5055581;28;20196;-80
2023/06/18 02:40:22;;;;;;;4.70;4.27;;;19.00;55.90;18.20;96317.00;;;;5056759;28;20196;-79
2023/06/18 02:42:50;;;;;;;4.53;4.13;;;19.00;55.90;18.20;96314.00;;;;5055994;28;20192;-79
2023/06/18 02:45:20;;;;;;;4.10;3.70;;;19.00;55.90;18.20;96312.00;;;;5056959;28;20235;-79
2023/06/18 02:47:49;;;;;;;4.43;4.13;;;19.00;56.00;18.20;96317.00;;;;5058754;28;20208;-79
2023/06/18 02:50:18;;;;;;;3.73;3.43;;;19.00;56.00;18.10;96311.00;;;;5060564;28;20223;-79
2023/06/18 02:52:46;;;;;;;3.90;3.60;;;19.00;55.90;18.10;96314.00;;;;5056636;28;20196;-79
2023/06/18 02:55:14;;;;;;;4.23;3.93;;;19.00;56.00;18.10;96308.00;;;;5063258;28;20232;-79
2023/06/18 02:57:44;;;;;;;4.03;3.63;;;19.00;56.00;18.10;96310.00;;;;5064862;28;20219;-77
2023/06/18 03:00:14;;;;;;;4.83;3.93;;;19.00;56.00;18.10;96315.00;;;;5055627;28;20192;-80
2023/06/18 03:02:44;;;;;;;4.27;3.87;;;18.90;56.00;18.00;96315.00;;;;5044409;28;20235;-80
2023/06/18 03:05:11;;;;;;;4.20;3.80;;;18.90;56.00;18.00;96322.00;;;;5049612;28;20235;-80
2023/06/18 03:07:39;;;;;;;4.23;3.83;;;18.90;56.00;18.00;96323.00;;;;5050204;28;20720;-80
2023/06/18 03:10:07;;;;;;;4.00;3.57;;;18.90;56.00;18.00;96327.00;;;;5048076;28;20205;-79
2023/06/18 03:12:35;;;;;;;4.23;3.83;;;18.90;56.00;17.90;96321.00;;;;5054488;28;20201;-80
2023/06/18 03:15:06;;;;;;;3.80;3.50;;;18.80;55.90;17.90;96330.00;;;;5053991;28;20934;-79
2023/06/18 03:17:33;;;;;;;4.20;3.80;;;18.80;55.90;17.80;96331.00;;;;5050350;28;20653;-80
2023/06/18 03:20:01;;;;;;;3.70;3.40;;;18.80;55.90;17.80;96326.00;;;;5052843;28;20383;-79
2023/06/18 03:22:28;;;;;;;4.00;3.63;;;18.70;56.00;17.80;96324.00;;;;5052288;28;20199;-80
2023/06/18 03:24:56;;;;;;;3.90;3.60;;;18.70;56.20;17.80;96330.00;;;;5049998;28;20250;-80
2023/06/18 03:27:24;;;;;;;4.27;3.97;;;18.70;56.30;17.70;96323.00;;;;5052022;28;20688;-80
2023/06/18 03:29:51;;;;;;;3.93;3.63;;;18.60;56.40;17.70;96326.00;;;;5049172;28;20188;-80
2023/06/18 03:32:21;;;;;;;4.40;3.97;;;18.60;56.50;17.70;96324.00;;;;5053746;28;20197;-80
2023/06/18 03:34:48;;;;;;;4.53;4.20;;;18.60;56.60;17.70;96321.00;;;;5053580;28;20744;-80
2023/06/18 03:37:16;;;;;;;4.50;4.10;;;18.60;56.60;17.70;96319.00;;;;5053232;28;20224;-80
2023/06/18 03:39:43;;;;;;;4.50;4.10;;;18.60;56.60;17.70;96316.00;;;;5049119;28;20206;-80
2023/06/18 03:42:11;;;;;;;3.97;3.67;;;18.60;56.70;17.60;96321.00;;;;5051687;28;20676;-80
2023/06/18 03:44:39;;;;;;;4.77;4.10;;;18.50;56.70;17.60;96321.00;;;;5044225;28;20633;-80
2023/06/18 03:47:07;;;;;;;4.10;3.80;;;18.50;56.80;17.60;96313.00;;;;5052224;28;20193;-79
2023/06/18 03:49:36;;;;;;;3.83;3.50;;;18.50;56.80;17.60;96322.00;;;;5052986;28;20288;-80
2023/06/18 03:52:04;;;;;;;4.60;4.30;;;18.50;56.80;17.60;96320.00;;;;5053552;28;20201;-81
2023/06/18 03:54:31;;;;;;;4.80;4.30;;;18.50;56.90;17.60;96315.00;;;;5053032;28;20220;-80
2023/06/18 03:57:00;;;;;;;4.50;4.13;;;18.50;57.00;17.60;96315.00;;;;5052192;28;20752;-80
2023/06/18 03:59:28;;;;;;;4.70;4.27;;;18.50;57.10;17.50;96320.00;;;;5046404;28;20201;-79
2023/06/18 04:01:55;;;;;;;4.23;3.83;;;18.50;57.10;17.50;96322.00;;;;5068331;28;20235;-81
2023/06/18 04:04:22;;;;;;;4.57;4.17;;;18.40;57.00;17.50;96323.00;;;;5054187;28;20232;-81
2023/06/18 04:06:51;;;;;;;3.90;3.60;;;18.40;57.10;17.50;96321.00;;;;5054771;28;20314;-80
2023/06/18 04:09:18;;;;;;;3.90;3.60;;;18.40;57.20;17.50;96326.00;;;;5054132;28;20283;-80
2023/06/18 04:11:46;;;;;;;4.10;3.80;;;18.40;57.20;17.50;96326.00;;;;5054780;28;20193;-80
2023/06/18 04:14:13;;;;;;;4.40;4.00;;;18.40;57.40;17.50;96329.00;;;;5049699;28;20605;-79
2023/06/18 04:16:41;;;;;;;4.10;3.70;;;18.40;57.40;17.40;96328.00;;;;5049970;28;20193;-80
2023/06/18 04:19:08;;;;;;;4.77;4.37;;;18.40;57.50;17.40;96322.00;;;;5058909;28;20193;-79
2023/06/18 04:21:37;;;;;;;4.37;4.07;;;18.30;57.50;17.40;96327.00;;;;5057534;28;20196;-79
2023/06/18 04:24:06;;;;;;;4.00;3.70;;;18.30;57.60;17.40;96330.00;;;;5041591;28;20718;-79
2023/06/18 04:26:33;;;;;;;4.70;4.30;;;18.30;57.80;17.50;96332.00;;;;5040984;28;20228;-79
2023/06/18 04:29:00;;;;;;;4.53;4.13;;;18.30;57.90;17.40;96336.00;;;;5058661;28;20246;-80
2023/06/18 04:31:28;;;;;;;4.73;4.33;;;18.30;58.00;17.50;96333.00;;;;5050914;28;20287;-80
2023/06/18 04:33:55;;;;;;;4.77;4.37;;;18.30;58.10;17.50;96343.00;;;;5058108;28;20263;-80
2023/06/18 04:36:22;;;;;;;4.20;3.90;;;18.40;58.20;17.50;96337.00;;;;5058830;28;20211;-80
2023/06/18 04:38:50;;;;;;;4.40;3.97;;;18.40;58.30;17.50;96341.00;;;;5058138;28;20279;-79
2023/06/18 04:41:18;;;;;;;4.23;3.93;;;18.40;58.40;17.50;96336.00;;;;5058082;28;20292;-80
2023/06/18 04:43:46;;;;;;;4.77;4.07;;;18.40;58.60;17.60;96337.00;;;;5056074;28;20217;-80
2023/06/18 04:46:13;;;;;;;4.23;3.83;;;18.40;58.70;17.60;96343.00;;;;5046134;28;20223;-80
2023/06/18 04:48:40;;;;;;;4.90;4.43;;;18.40;58.90;17.60;96341.00;;;;5057405;28;20193;-80
2023/06/18 04:51:08;;;;;;;4.87;4.47;;;18.40;58.90;17.70;96341.00;;;;5055531;28;20279;-79
2023/06/18 04:53:35;;;;;;;5.00;4.60;;;18.50;59.00;17.70;96333.00;;;;5056926;28;20216;-80
2023/06/18 04:56:02;;;;;;;5.00;4.60;;;18.50;59.10;17.80;96339.00;;;;5055989;28;20207;-80
2023/06/18 04:58:34;;;;;;;4.77;4.37;;;18.50;59.20;17.80;96335.00;;;;5051653;28;20188;-80
2023/06/18 05:01:02;;;;;;;5.20;4.80;;;18.60;59.60;17.90;96339.00;;;;5057361;28;20192;-81
2023/06/18 05:03:29;;;;;;;5.60;4.70;;;18.60;59.40;17.90;96342.00;;;;5053721;28;20225;-81
2023/06/18 05:05:56;;;;;;;5.47;4.97;;;18.60;59.40;18.00;96339.00;;;;5054080;28;20212;-80
2023/06/18 05:08:23;;;;;;;5.10;4.67;;;18.70;59.40;18.00;96342.00;;;;5058698;28;20204;-80
2023/06/18 05:10:51;;;;;;;5.47;5.03;;;18.70;59.40;18.10;96337.00;;;;5059134;28;20680;-81
2023/06/18 05:13:18;;;;;;;5.47;5.07;;;18.80;59.40;18.10;96340.00;;;;5061279;28;20784;-80
2023/06/18 05:15:47;;;;;;;5.47;4.97;;;18.80;59.90;18.20;96342.00;;;;5063620;28;20203;-80
2023/06/18 05:18:14;;;;;;;5.80;5.20;;;18.90;59.40;18.20;96349.00;;;;5063739;28;20214;-80
2023/06/18 05:20:42;;;;;;;5.37;4.87;;;18.90;59.20;18.30;96349.00;;;;5063975;28;20196;-80
2023/06/18 05:23:09;;;;;;;6.03;5.53;;;19.00;59.20;18.40;96350.00;;;;5076941;28;20720;-80
2023/06/18 05:25:37;;;;;;;6.03;5.43;;;19.00;59.20;18.40;96352.00;;;;5066796;28;20227;-80
2023/06/18 05:28:05;;;;;;;6.73;5.00;;;19.10;58.90;18.50;96355.00;;;;5063137;28;20212;-80
2023/06/18 05:30:32;;;;;;;5.70;5.20;;;19.20;58.80;18.60;96351.00;;;;5058715;28;20201;-81
2023/06/18 05:33:01;;;;;;;6.03;4.97;;;19.20;59.00;18.70;96347.00;;;;5051380;28;20672;-81
2023/06/18 05:35:29;;;;;;;5.20;4.70;;;19.30;59.00;18.70;96349.00;;;;5054232;28;20276;-80
2023/06/18 05:37:56;;;;;;;5.27;4.87;;;19.40;58.70;18.80;96350.00;;;;5057013;28;20193;-80
2023/06/18 05:40:23;;;;;;;5.97;5.47;;;19.40;58.50;18.90;96346.00;;;;5036668;28;20209;-81
2023/06/18 05:42:50;;;;;;;6.33;4.83;;;19.50;58.30;19.00;96353.00;;;;5053045;28;20223;-79
2023/06/18 05:45:18;;;;;;;5.30;4.80;;;19.60;58.20;19.10;96353.00;;;;5051438;28;20220;-80
2023/06/18 05:47:45;;;;;;;6.10;5.50;;;19.70;58.00;19.20;96356.00;;;;5042176;28;20200;-80
2023/06/18 05:50:14;;;;;;;5.13;4.63;;;19.70;57.90;19.20;96355.00;;;;5038693;28;20204;-78
2023/06/18 05:52:41;;;;;;;4.47;4.17;;;19.80;58.10;19.30;96361.00;;;;5051496;28;20189;-81
2023/06/18 05:55:09;;;;;;;5.47;4.90;;;19.90;57.90;19.40;96362.00;;;;5053211;28;20223;-80
2023/06/18 05:57:37;;;;;;;4.80;4.33;;;20.00;57.70;19.50;96363.00;;;;5049321;28;20201;-80
2023/06/18 06:00:05;;;;;;;6.03;4.87;;;20.10;57.60;19.60;96355.00;;;;5050437;28;20657;-81
2023/06/18 06:02:33;;;;;;;6.63;5.30;;;20.20;57.60;19.70;96365.00;;;;5046504;28;20201;-81
2023/06/18 06:05:00;;;;;;;8.03;5.57;;;20.20;57.70;19.80;96375.00;;;;5030005;28;20220;-81
2023/06/18 06:07:29;;;;;;;6.20;5.47;;;20.30;57.90;19.90;96367.00;;;;5044173;28;20643;-80
2023/06/18 06:09:56;;;;;;;5.33;4.83;;;20.40;58.30;20.00;96371.00;;;;5050244;28;20201;-81
2023/06/18 06:12:23;;;;;;;5.97;5.33;;;20.50;58.20;20.10;96377.00;;;;5054004;28;20228;-80
2023/06/18 06:14:51;;;;;;;5.20;4.80;;;20.60;58.20;20.20;96371.00;;;;5054268;28;20266;-81
2023/06/18 06:17:18;;;;;;;5.17;4.73;;;20.70;58.20;20.30;96383.00;;;;5054686;28;20200;-81
2023/06/18 06:19:46;;;;;;;5.63;4.80;;;20.80;57.80;20.40;96376.00;;;;5052402;28;20227;-80
2023/06/18 06:22:13;;;;;;;4.90;4.50;;;20.90;57.50;20.50;96387.00;;;;5048896;28;20201;-81
2023/06/18 06:24:42;;;;;;;5.67;4.80;;;21.00;57.20;20.60;96378.00;;;;5053083;28;20593;-80
2023/06/18 06:27:09;;;;;;;5.23;4.73;;;21.10;56.90;20.70;96381.00;;;;5069447;28;20701;-81
2023/06/18 06:29:37;;;;;;;5.33;4.83;;;21.20;56.90;20.80;96381.00;;;;5054662;28;20197;-81
2023/06/18 06:32:05;;;;;;;5.57;5.07;;;21.20;56.60;20.90;96384.00;;;;5052727;28;20206;-81
2023/06/18 06:34:33;;;;;;;5.20;4.73;;;21.40;56.50;21.00;96378.00;;;;5044382;28;20220;-80
2023/06/18 06:37:00;;;;;;;5.13;4.73;;;21.40;56.80;21.10;96377.00;;;;5047761;28;20233;-81
2023/06/18 06:39:28;;;;;;;5.33;4.90;;;21.50;56.60;21.20;96386.00;;;;5051642;28;20204;-80
2023/06/18 06:41:57;;;;;;;5.50;5.00;;;21.60;56.70;21.30;96388.00;;;;5052244;28;20742;-80
2023/06/18 06:44:24;;;;;;;5.20;4.70;;;21.70;56.60;21.40;96396.00;;;;5052091;28;20234;-81
2023/06/18 06:46:51;;;;;;;5.37;4.87;;;21.80;56.30;21.50;96389.00;;;;5044185;28;20247;-81
2023/06/18 06:49:19;;;;;;;7.50;5.07;;;21.90;56.20;21.60;96391.00;;;;5055088;28;20264;-81
2023/06/18 06:51:46;;;;;;;4.90;4.50;;;22.00;56.10;21.70;96382.00;;;;5053839;28;20271;-81
2023/06/18 06:54:13;;;;;;;5.23;4.40;;;22.10;55.90;21.80;96383.00;;;;5053643;28;20224;-81
2023/06/18 06:56:41;;;;;;;4.73;4.33;;;22.20;55.90;21.90;96389.00;;;;5055331;28;20205;-81
2023/06/18 06:59:10;;;;;;;5.67;5.10;;;22.30;55.80;22.00;96389.00;;;;5054007;28;20646;-81
2023/06/18 07:01:39;;;;;;;4.50;4.20;;;22.40;55.80;22.20;96394.00;;;;5053024;28;20197;-81
2023/06/18 07:04:06;;;;;;;4.80;4.40;;;22.50;55.50;22.30;96395.00;;;;5055827;28;20213;-81
2023/06/18 07:06:33;;;;;;;4.77;4.33;;;22.60;55.70;22.50;96392.00;;;;5054961;28;20717;-81
2023/06/18 07:09:03;;;;;;;5.13;4.63;;;22.80;55.70;22.60;96390.00;;;;5056200;28;20203;-81
2023/06/18 07:11:30;;;;;;;4.30;3.90;;;22.90;55.10;22.70;96389.00;;;;5049396;28;20212;-82
2023/06/18 07:13:57;;;;;;;4.23;3.83;;;23.00;54.70;22.90;96398.00;;;;5052565;28;20663;-83
2023/06/18 07:16:26;;;;;;;4.10;3.80;;;23.20;54.70;23.00;96393.00;;;;5043091;28;20284;-83
2023/06/18 07:18:53;;;;;;;4.73;4.13;;;23.30;54.60;23.10;96389.00;;;;5050415;28;20270;-83
2023/06/18 07:21:21;;;;;;;4.80;4.40;;;23.40;54.30;23.30;96395.00;;;;5054434;28;20194;-82
2023/06/18 07:23:48;;;;;;;5.63;4.53;;;23.60;54.00;23.50;96395.00;;;;5060089;28;20302;-82
2023/06/18 07:26:15;;;;;;;4.67;4.27;;;23.70;53.90;23.60;96401.00;;;;5057264;28;20315;-82
2023/06/18 07:28:42;;;;;;;4.60;4.20;;;23.90;54.30;23.80;96394.00;;;;5059460;28;20294;-81
2023/06/18 07:31:10;;;;;;;4.47;4.10;;;24.10;54.60;24.00;96400.00;;;;5059754;28;20283;-82
2023/06/18 07:33:38;;;;;;;4.17;3.87;;;24.20;53.70;24.10;96391.00;;;;5052511;28;20219;-82
2023/06/18 07:36:06;;;;;;;4.37;4.07;;;24.40;53.70;24.30;96395.00;;;;5036221;28;20193;-82
2023/06/18 07:38:34;;;;;;;4.50;4.10;;;24.60;52.80;24.50;96398.00;;;;5054231;28;20192;-79
2023/06/18 07:41:01;;;;;;;3.90;3.60;;;24.70;52.30;24.70;96396.00;;;;5054484;28;20208;-79
2023/06/18 07:43:28;;;;;;;3.80;3.50;;;24.90;51.90;24.80;96396.00;;;;5049704;28;20248;-79
2023/06/18 07:45:56;;;;;;;4.23;3.83;;;25.10;51.80;25.00;96389.00;;;;5063237;28;20211;-79
2023/06/18 07:48:24;;;;;;;4.47;4.07;;;25.20;51.70;25.20;96394.00;;;;5059305;28;20262;-79
2023/06/18 07:50:53;;;;;;;4.30;4.00;;;25.40;51.40;25.30;96392.00;;;;5056297;28;20235;-78
2023/06/18 07:53:21;;;;;;;4.97;4.57;;;25.60;51.40;25.50;96396.00;;;;5053283;28;20542;-78
2023/06/18 07:55:48;;;;;;;4.03;3.63;;;25.70;51.50;25.70;96397.00;;;;5053391;28;20200;-79
2023/06/18 07:58:15;;;;;;;4.10;3.80;;;25.90;50.90;25.80;96389.00;;;;5051562;28;20582;-79
2023/06/18 08:00:43;;;;;;;3.97;3.50;;;26.00;50.80;26.00;96402.00;;;;5053108;28;20666;-79
2023/06/18 08:03:10;;;;;;;3.97;3.67;;;26.20;50.60;26.20;96405.00;;;;5052477;28;20631;-83
2023/06/18 08:05:37;;;;;;;3.23;3.03;;;26.40;50.00;26.30;96398.00;;;;5045178;28;20226;-82
2023/06/18 08:08:06;;;;;;;3.90;3.60;;;26.50;49.70;26.50;96407.00;;;;5053214;28;20220;-82
2023/06/18 08:10:34;;;;;;;3.70;3.40;;;26.60;48.90;26.60;96397.00;;;;5058223;28;20189;-81
2023/06/18 08:13:01;;;;;;;3.40;3.13;;;26.80;48.60;26.70;96405.00;;;;5047811;28;20251;-80
2023/06/18 08:15:28;;;;;;;3.63;3.33;;;26.90;48.50;26.90;96396.00;;;;5057876;28;20203;-81
2023/06/18 08:17:55;;;;;;;3.70;3.40;;;27.10;48.40;27.00;96393.00;;;;5053189;28;20211;-82
2023/06/18 08:20:23;;;;;;;4.17;3.77;;;27.20;48.00;27.10;96396.00;;;;5068588;28;20201;-82
2023/06/18 08:22:50;;;;;;;4.05;3.75;;;27.30;47.80;27.30;96399.00;;;;5053089;28;20276;-81
2023/06/18 08:25:19;;;;;;;3.67;3.38;;;27.50;47.70;27.40;96399.00;;;;5051171;28;20228;-81
2023/06/18 08:27:46;;;;;;;3.58;3.28;;;27.60;47.50;27.60;96396.00;;;;5050600;28;20281;-80
2023/06/18 08:30:13;;;;;;;3.58;3.38;;;27.70;47.30;27.70;96398.00;;;;5053292;28;20196;-81
2023/06/18 08:32:41;;;;;;;3.67;3.38;;;27.90;47.00;27.90;96401.00;;;;5050725;28;20207;-82
2023/06/18 08:35:09;;;;;;;4.53;4.00;;;28.00;46.80;28.00;96396.00;;;;5050382;28;20220;-82
2023/06/18 08:37:37;;;;;;;3.65;3.35;;;28.20;46.30;28.10;96396.00;;;;5051136;28;20200;-83
2023/06/18 08:40:05;;;;;;;3.47;3.28;;;28.30;46.00;28.20;96392.00;;;;5050827;28;20196;-82
2023/06/18 08:42:35;;;;;;;3.35;3.05;;;28.40;45.90;28.40;96391.00;;;;5052386;28;20218;-82
2023/06/18 08:45:02;;;;;;;3.22;3.03;;;28.60;45.20;28.50;96393.00;;;;5045084;28;20295;-82
2023/06/18 08:47:32;;;;;;;3.28;3.00;;;28.70;45.20;28.70;96387.00;;;;5043664;28;20231;-83
2023/06/18 08:50:00;;;;;;;4.65;3.25;;;28.80;45.00;28.80;96386.00;;;;5044026;28;20679;-83
2023/06/18 08:52:29;;;;;;;3.63;3.20;;;29.00;45.10;28.90;96393.00;;;;5051189;28;20192;-83
2023/06/18 08:55:02;;;;;;;3.33;3.08;;;29.10;43.50;29.10;96394.00;;;;5054959;28;20712;-82
2023/06/18 08:57:44;;;;;;;4.75;3.40;;;29.20;43.20;29.20;96399.00;;;;5035326;28;20200;-83
2023/06/18 09:00:12;;;;;;;3.20;2.97;;;29.40;43.50;29.30;96401.00;;;;5050757;28;20197;-82
2023/06/18 09:02:40;;;;;;;3.00;2.80;;;29.50;42.70;29.50;96402.00;;;;5045450;28;20582;-81
2023/06/18 09:05:09;;;;;;;3.05;2.85;;;29.60;42.40;29.60;96398.00;;;;5050826;28;20221;-82
2023/06/18 09:07:37;;;;;;;2.60;2.40;;;29.70;42.00;29.70;96404.00;;;;5055412;28;20240;-82
2023/06/18 09:10:07;;;;;;;3.25;3.03;;;29.90;42.00;29.80;96402.00;;;;5056690;28;20246;-82
2023/06/18 09:12:36;;;;;;;2.90;2.70;;;30.00;41.00;30.00;96398.00;;;;5042484;28;20207;-82
2023/06/18 09:15:04;;;;;;;3.00;2.80;;;30.20;40.90;30.10;96395.00;;;;5050964;28;20204;-83
2023/06/18 09:17:32;;;;;;;3.15;2.95;;;30.20;40.60;30.20;96395.00;;;;5055591;28;20220;-83
2023/06/18 09:20:00;;;;;;;2.92;2.72;;;30.40;40.20;30.30;96397.00;;;;5056239;28;20654;-83
2023/06/18 09:22:27;;;;;;;2.95;2.75;;;30.50;40.00;30.40;96409.00;;;;5054683;28;20226;-83
2023/06/18 09:24:58;;;;;;;2.83;2.58;;;30.60;40.10;30.50;96402.00;;;;5055057;28;20308;-82
2023/06/18 09:27:33;;;;;;;2.70;2.50;;;30.70;39.40;30.60;96397.00;;;;5055248;28;20625;-83
2023/06/18 09:30:05;;;;;;;2.80;2.60;;;30.80;38.60;30.80;96401.00;;;;5050849;28;20192;-82
2023/06/18 09:32:47;;;;;;;2.80;2.60;;;30.90;38.20;30.90;96398.00;;;;5055995;28;20197;-82
2023/06/18 09:35:16;;;;;;;2.65;2.45;;;31.00;38.20;31.00;96400.00;;;;5056210;28;20236;-83
2023/06/18 09:37:47;;;;;;;2.97;2.78;;;31.20;38.10;31.10;96403.00;;;;5057223;28;20219;-83
2023/06/18 09:40:16;;;;;;;2.88;2.60;;;31.30;38.10;31.30;96402.00;;;;5056137;28;20280;-83
2023/06/18 09:42:45;;;;;;;2.47;2.28;;;31.50;37.20;31.40;96403.00;;;;5061337;28;20197;-82
2023/06/18 09:45:14;;;;;;;2.72;2.53;;;31.60;37.40;31.60;96401.00;;;;5060384;28;20227;-83
2023/06/18 09:47:46;;;;;;;2.72;2.53;;;31.80;37.20;31.70;96401.00;;;;5061676;28;20243;-83
2023/06/18 09:50:14;;;;;;;2.28;2.13;;;32.00;37.20;31.90;96396.00;;;;5060599;28;20207;-83
2023/06/18 09:52:46;;;;;;;2.97;2.78;;;32.20;37.20;32.10;96394.00;;;;5070714;28;20203;-82
2023/06/18 09:55:30;;;;;;;2.55;2.30;;;32.50;36.00;32.20;96393.00;;;;5062113;28;20256;-82
2023/06/18 09:57:59;;;;;;;2.55;2.35;;;32.70;34.70;32.40;96396.00;;;;5057244;28;20197;-82
2023/06/18 10:00:28;;;;;;;2.65;2.45;;;32.90;36.20;32.60;96402.00;;;;5059011;28;20254;-82
2023/06/18 10:03:06;;;;;;;2.45;2.35;;;33.20;35.70;32.80;96404.00;;;;5060891;28;20201;-82
2023/06/18 10:05:34;;;;;;;5.20;2.50;;;33.40;34.50;33.00;96405.00;;;;5057128;28;20199;-82
2023/06/18 10:08:03;;;;;;;2.83;2.63;;;33.60;35.30;33.10;96399.00;;;;5065224;28;20803;-81
2023/06/18 10:10:33;;;;;;;2.60;2.40;;;33.90;35.20;33.30;96401.00;;;;5063687;28;20195;-82
2023/06/18 10:13:06;;;;;;;2.72;2.53;;;34.20;34.50;33.50;96404.00;;;;5067708;28;20189;-82
2023/06/18 10:15:37;;;;;;;3.15;2.40;;;34.40;33.50;33.70;96402.00;;;;5053283;28;20213;-83
2023/06/18 10:18:08;;;;;;;2.90;2.65;;;34.60;33.20;33.80;96405.00;;;;5053768;28;20645;-83
2023/06/18 10:20:37;;;;;;;2.38;2.28;;;34.80;33.50;34.00;96400.00;;;;5055022;28;20204;-83
2023/06/18 10:23:07;;;;;;;2.67;2.10;;;35.00;33.50;34.10;96401.00;;;;5057525;28;20204;-83
2023/06/18 10:25:35;;;;;;;2.35;2.25;;;35.10;33.40;34.20;96403.00;;;;5056688;28;20208;-83
2023/06/18 10:28:04;;;;;;;2.53;2.33;;;35.30;33.00;34.30;96399.00;;;;5053887;28;20213;-82
2023/06/18 10:30:31;;;;;;;2.40;2.20;;;35.40;32.40;34.40;96398.00;;;;5046224;28;20213;-82
2023/06/18 10:33:00;;;;;;;2.63;2.42;;;35.40;32.20;34.50;96394.00;;;;5055623;28;20217;-83
2023/06/18 10:35:29;;;;;;;2.55;2.35;;;35.50;31.90;34.60;96392.00;;;;5057840;28;20277;-82
2023/06/18 10:37:58;;;;;;;2.60;2.40;;;35.60;32.10;34.60;96389.00;;;;5055362;28;20288;-83
2023/06/18 10:40:25;;;;;;;2.83;2.63;;;35.60;31.50;34.70;96397.00;;;;5064261;28;20211;-82
2023/06/18 10:43:04;;;;;;;2.35;2.22;;;35.60;32.10;34.70;96397.00;;;;5056377;28;20196;-83
2023/06/18 10:45:31;;;;;;;2.20;2.10;;;35.60;31.20;34.70;96391.00;;;;5053534;28;20685;-83
2023/06/18 10:51:16;;;;;;;3.45;3.25;;;35.60;32.40;34.80;96389.00;;;;5112998;27;20559;-80
2023/06/18 10:53:45;;;;;;;2.97;2.67;;;35.60;30.70;34.80;96384.00;;;;5084644;28;20310;-81
2023/06/18 10:56:15;;;;;;;3.45;3.25;;;35.50;30.90;34.80;96384.00;;;;5068987;28;20224;-79
2023/06/18 10:58:43;;;;;;;2.83;2.60;;;35.40;30.30;34.70;96386.00;;;;5064026;28;20200;-80
2023/06/18 11:01:27;;;;;;;2.95;2.75;;;35.40;30.00;34.50;96373.00;;;;5070516;28;20196;-81
2023/06/18 11:04:07;;;;;;;4.22;2.50;;;35.20;30.00;34.40;96377.00;;;;5066875;28;20769;-81